Time;durP1;ratioP1;P1;durP2;ratioP2;P2;SDS_P1;SDS_P2;PMS_P1;PMS_P2;Temp;Humidity;BMP_temperature;BMP_pressure;BME280_temperature;BME280_humidity;BME280_pressure;Samples;Min_cycle;Max_cycle;Signal;HPM_P1;HPM_P2
2021/05/28 00:01:53;;;;;;;5.78;3.28;;;;;;;15.49;79.39;93191.84;5054070;28;20036;-43
2021/05/28 00:04:18;;;;;;;5.88;3.28;;;;;;;15.49;80.06;93194.63;5054032;28;20032;-45
2021/05/28 00:06:44;;;;;;;5.05;3.55;;;;;;;15.55;79.60;93201.34;5051907;28;20483;-43
2021/05/28 00:09:09;;;;;;;3.80;2.88;;;;;;;15.42;79.59;93184.38;5031863;28;20033;-43
2021/05/28 00:11:35;;;;;;;5.03;2.42;;;;;;;15.58;78.98;93207.81;5033733;28;20021;-46
2021/05/28 00:14:00;;;;;;;4.80;2.58;;;;;;;15.67;78.92;93209.84;5033846;28;20025;-43
2021/05/28 00:16:26;;;;;;;4.78;3.00;;;;;;;15.64;78.86;93205.44;5033824;28;20310;-43
2021/05/28 00:18:55;;;;;;;4.90;3.53;;;;;;;15.61;78.67;93201.06;5033371;28;20523;-42
2021/05/28 00:21:20;;;;;;;;;;;;;;;15.54;78.51;93199.91;5034286;28;20036;-45
2021/05/28 00:23:47;;;;;;;4.03;2.80;;;;;;;15.49;78.66;93202.97;5033527;28;20295;-43
2021/05/28 00:26:12;;;;;;;5.32;2.72;;;;;;;15.37;79.09;93202.81;5033332;28;20029;-46
2021/05/28 00:28:38;;;;;;;2.35;2.15;;;;;;;15.31;78.43;93182.88;5033287;28;20050;-44
2021/05/28 00:31:03;;;;;;;4.75;2.80;;;;;;;15.24;80.57;93189.34;5033170;28;20029;-44
2021/05/28 00:33:29;;;;;;;3.78;2.65;;;;;;;15.13;81.41;93185.13;5033522;28;20419;-43
2021/05/28 00:35:54;;;;;;;3.72;3.28;;;;;;;15.07;81.92;93183.94;5033623;28;20515;-47
2021/05/28 00:38:19;;;;;;;5.25;3.35;;;;;;;15.02;81.54;93182.91;5033095;28;20411;-44
2021/05/28 00:40:45;;;;;;;6.93;3.17;;;;;;;14.99;82.02;93186.84;5032152;28;20040;-42
2021/05/28 00:43:10;;;;;;;4.50;3.20;;;;;;;15.04;81.92;93180.28;5033231;28;20101;-43
2021/05/28 00:45:36;;;;;;;7.95;3.83;;;;;;;15.06;82.09;93177.63;5033260;28;20103;-43
2021/05/28 00:48:01;;;;;;;3.38;2.78;;;;;;;15.23;81.41;93187.88;5033153;28;20025;-47
2021/05/28 00:50:29;;;;;;;4.38;3.35;;;;;;;15.24;80.95;93183.06;5049819;28;20493;-42
2021/05/28 00:52:57;;;;;;;4.85;3.33;;;;;;;15.09;81.19;93176.44;5052954;28;20063;-43
2021/05/28 00:55:26;;;;;;;2.20;1.95;;;;;;;15.09;81.77;93192.44;5053192;28;20029;-42
2021/05/28 00:57:53;;;;;;;5.07;3.08;;;;;;;15.11;81.26;93187.75;5053027;28;20025;-45
2021/05/28 01:00:19;;;;;;;5.82;3.42;;;;;;;15.18;80.65;93189.63;5034943;28;20036;-46
2021/05/28 01:02:44;;;;;;;3.58;2.72;;;;;;;15.29;80.57;93190.38;5051719;28;20028;-46
2021/05/28 01:05:10;;;;;;;4.57;2.75;;;;;;;15.19;80.25;93193.16;5052755;28;20033;-45
2021/05/28 01:07:36;;;;;;;4.32;3.22;;;;;;;15.25;80.02;93185.25;5043598;28;20022;-44
2021/05/28 01:10:02;;;;;;;10.48;3.05;;;;;;;15.23;79.42;93182.31;5032791;28;20120;-46
2021/05/28 01:12:28;;;;;;;3.40;2.53;;;;;;;15.13;80.16;93182.34;5032874;28;20037;-43
2021/05/28 01:14:54;;;;;;;3.63;2.63;;;;;;;14.94;81.23;93187.84;5032583;28;20030;-44
2021/05/28 01:17:21;;;;;;;6.22;2.60;;;;;;;14.84;81.94;93187.13;5031036;28;20101;-45
2021/05/28 01:19:46;;;;;;;3.20;2.58;;;;;;;14.82;82.24;93184.19;5027639;28;20101;-41
2021/05/28 01:22:11;;;;;;;2.60;2.28;;;;;;;14.76;82.35;93174.69;5012760;28;20444;-42
2021/05/28 01:24:37;;;;;;;2.97;2.67;;;;;;;14.93;82.08;93180.09;5012597;28;20511;-43
2021/05/28 01:27:03;;;;;;;2.63;1.98;;;;;;;15.02;82.12;93184.94;5012705;28;20032;-42
2021/05/28 01:29:28;;;;;;;7.28;2.85;;;;;;;15.11;81.54;93182.19;5012590;28;20036;-42
2021/05/28 01:31:54;;;;;;;3.05;2.50;;;;;;;15.03;81.87;93183.63;4994894;28;20068;-45
2021/05/28 01:34:19;;;;;;;3.65;3.33;;;;;;;15.06;81.25;93180.41;5012293;28;20022;-44
2021/05/28 01:36:45;;;;;;;3.95;2.92;;;;;;;15.22;80.64;93175.31;5011726;28;20075;-43
2021/05/28 01:39:11;;;;;;;2.88;2.55;;;;;;;15.23;80.95;93173.97;5011684;28;20153;-45
2021/05/28 01:41:36;;;;;;;4.13;3.00;;;;;;;15.25;80.88;93171.34;5012610;28;20026;-44
2021/05/28 01:44:08;;;;;;;4.90;2.88;;;;;;;15.25;80.20;93170.59;5012359;28;20033;-45
2021/05/28 01:46:33;;;;;;;6.45;2.88;;;;;;;15.25;80.20;93174.13;5043613;28;20056;-46
2021/05/28 01:48:59;;;;;;;3.17;2.65;;;;;;;15.28;80.23;93167.38;5051794;28;20482;-46
2021/05/28 01:51:25;;;;;;;3.28;2.53;;;;;;;15.27;80.46;93168.00;5051880;28;20021;-42
2021/05/28 01:53:50;;;;;;;4.15;2.67;;;;;;;15.38;80.18;93153.47;5052026;28;20021;-44
2021/05/28 01:56:15;;;;;;;3.58;3.13;;;;;;;15.26;80.62;93155.38;5051090;28;20021;-43
2021/05/28 01:58:41;;;;;;;3.88;2.95;;;;;;;15.24;81.05;93144.84;5051218;28;20025;-46
2021/05/28 02:01:06;;;;;;;2.90;2.13;;;;;;;15.26;81.28;93152.59;5051807;28;20040;-44
2021/05/28 02:03:32;;;;;;;3.60;2.50;;;;;;;15.31;81.02;93148.81;5051401;28;20425;-46
2021/05/28 02:05:57;;;;;;;2.95;2.25;;;;;;;15.31;80.90;93163.41;5051495;28;20032;-44
2021/05/28 02:08:23;;;;;;;4.22;2.17;;;;;;;15.25;80.73;93163.00;5035987;28;20028;-43
2021/05/28 02:10:48;;;;;;;3.80;2.75;;;;;;;15.17;80.38;93159.63;5030984;28;20064;-45
2021/05/28 02:13:14;;;;;;;2.83;2.60;;;;;;;15.24;79.62;93152.47;5031632;28;20454;-44
2021/05/28 02:15:39;;;;;;;3.72;2.92;;;;;;;15.22;79.64;93149.53;5029860;28;20036;-45
2021/05/28 02:18:06;;;;;;;2.90;2.58;;;;;;;15.26;79.72;93141.47;5030795;28;20558;-47
2021/05/28 02:20:32;;;;;;;4.47;2.67;;;;;;;15.03;80.73;93141.91;5031442;28;20026;-46
2021/05/28 02:22:57;;;;;;;3.80;3.00;;;;;;;14.83;81.87;93146.03;5031197;28;20028;-44
2021/05/28 02:25:22;;;;;;;3.67;3.05;;;;;;;14.73;82.11;93145.25;5031098;28;20028;-42
2021/05/28 02:27:48;;;;;;;2.97;2.58;;;;;;;14.79;82.26;93143.66;5031271;28;20021;-44
2021/05/28 02:30:14;;;;;;;3.85;2.90;;;;;;;14.98;81.09;93149.25;5031398;28;20036;-46
2021/05/28 02:32:40;;;;;;;3.88;2.60;;;;;;;14.93;81.48;93141.19;5030816;28;20029;-43
2021/05/28 02:35:07;;;;;;;2.83;2.38;;;;;;;14.95;81.82;93142.06;5030078;28;20033;-43
2021/05/28 02:37:33;;;;;;;4.07;2.70;;;;;;;15.01;81.56;93136.94;5031229;28;20018;-43
2021/05/28 02:39:59;;;;;;;4.00;1.90;;;;;;;15.11;80.81;93159.94;5030842;28;20025;-43
2021/05/28 02:42:24;;;;;;;2.67;2.05;;;;;;;15.07;80.52;93158.91;5043220;28;20021;-43
2021/05/28 02:44:52;;;;;;;3.47;2.55;;;;;;;14.95;80.79;93139.28;5050604;28;20033;-44
2021/05/28 02:47:17;;;;;;;2.97;2.10;;;;;;;14.91;81.40;93139.00;5050533;28;20021;-43
2021/05/28 02:49:43;;;;;;;5.65;2.75;;;;;;;14.76;82.09;93133.00;5050162;28;20023;-45
2021/05/28 02:52:08;;;;;;;5.90;3.40;;;;;;;14.55;82.47;93119.66;5050161;28;20032;-43
2021/05/28 02:54:34;;;;;;;5.35;3.50;;;;;;;14.62;83.01;93132.69;5048868;28;20020;-42
2021/05/28 02:56:59;;;;;;;3.85;2.95;;;;;;;14.59;83.10;93135.91;5026309;28;20049;-43
2021/05/28 02:59:24;;;;;;;3.08;2.63;;;;;;;14.56;83.04;93126.69;5030591;28;20407;-45
2021/05/28 03:01:50;;;;;;;3.80;2.95;;;;;;;14.71;82.45;93140.28;5030537;28;20414;-44
2021/05/28 03:04:16;;;;;;;3.03;2.72;;;;;;;14.65;82.75;93133.56;5030861;28;20021;-43
2021/05/28 03:06:42;;;;;;;3.60;2.72;;;;;;;14.76;82.70;93135.75;5030705;28;20017;-44
2021/05/28 03:09:07;;;;;;;2.72;2.50;;;;;;;14.85;81.94;93132.28;5029667;28;20492;-42
2021/05/28 03:11:33;;;;;;;4.25;2.55;;;;;;;14.90;82.12;93131.25;5030630;28;20028;-45
2021/05/28 03:13:59;;;;;;;2.58;2.15;;;;;;;14.84;81.92;93136.34;5030364;28;20535;-45
2021/05/28 03:16:25;;;;;;;7.05;3.17;;;;;;;14.85;81.39;93132.28;5030335;28;20026;-44
2021/05/28 03:18:54;;;;;;;3.33;2.63;;;;;;;14.83;80.63;93123.78;5030038;28;20034;-43
2021/05/28 03:23:49;;;;;;;5.25;2.97;;;;;;;14.80;80.45;93124.94;5008357;28;20034;-41
2021/05/28 03:26:15;;;;;;;4.97;2.88;;;;;;;14.70;81.34;93133.28;5008353;28;20040;-46
2021/05/28 03:28:40;;;;;;;7.90;2.95;;;;;;;14.63;82.23;93130.63;5007426;28;20415;-42
2021/05/28 03:31:06;;;;;;;2.65;2.45;;;;;;;14.58;82.04;93129.59;5022856;28;20021;-44
2021/05/28 03:33:31;;;;;;;3.40;2.83;;;;;;;14.61;82.29;93128.44;5030412;28;20064;-46
2021/05/28 03:35:57;;;;;;;3.40;3.03;;;;;;;14.50;82.55;93129.00;5029776;28;20650;-42
2021/05/28 03:38:22;;;;;;;3.58;3.17;;;;;;;14.47;82.83;93124.59;5030119;28;20020;-41
2021/05/28 03:40:48;;;;;;;4.95;2.83;;;;;;;14.52;82.84;93126.38;5028569;28;20442;-42
2021/05/28 03:43:13;;;;;;;3.38;2.90;;;;;;;14.64;82.67;93137.66;5028796;28;20402;-44
2021/05/28 03:45:39;;;;;;;4.32;3.28;;;;;;;14.82;81.80;93141.75;5029178;28;20033;-44
2021/05/28 03:48:04;;;;;;;4.22;2.65;;;;;;;14.81;81.74;93138.25;5028967;28;20018;-45
2021/05/28 03:50:30;;;;;;;3.35;2.72;;;;;;;14.74;81.79;93143.97;5029426;28;20062;-43
2021/05/28 03:52:55;;;;;;;3.35;2.90;;;;;;;14.79;81.41;93148.50;5029204;28;20062;-41
2021/05/28 03:55:20;;;;;;;7.55;2.75;;;;;;;14.83;81.08;93146.75;5029699;28;20025;-43
2021/05/28 03:57:46;;;;;;;12.60;3.13;;;;;;;14.94;80.90;93157.28;5030208;28;20014;-41
2021/05/28 04:00:12;;;;;;;3.95;2.50;;;;;;;14.93;81.02;93157.88;5029712;28;20529;-45
2021/05/28 04:02:37;;;;;;;4.03;2.78;;;;;;;14.97;80.73;93161.69;5028494;28;20479;-42
2021/05/28 04:05:03;;;;;;;4.03;3.00;;;;;;;14.93;80.86;93169.72;5030001;28;20021;-43
2021/05/28 04:07:29;;;;;;;5.85;2.95;;;;;;;14.96;81.48;93171.34;5029428;28;20013;-46
2021/05/28 04:09:54;;;;;;;4.03;3.10;;;;;;;14.96;81.46;93165.78;5029982;28;20021;-41
2021/05/28 04:12:20;;;;;;;5.20;3.10;;;;;;;15.01;81.34;93164.75;5030055;28;20045;-43
2021/05/28 04:14:45;;;;;;;3.70;2.65;;;;;;;14.93;81.13;93166.22;5030049;28;20376;-46
2021/05/28 04:17:10;;;;;;;4.03;2.83;;;;;;;14.81;81.63;93166.03;5029566;28;20028;-45
2021/05/28 04:19:36;;;;;;;5.32;3.58;;;;;;;14.90;81.44;93178.50;5029297;28;20046;-44
2021/05/28 04:22:02;;;;;;;4.13;3.45;;;;;;;15.10;81.22;93183.50;5029576;28;20496;-42
2021/05/28 04:24:27;;;;;;;13.05;4.60;;;;;;;15.26;80.95;93185.97;5030009;28;20563;-43
2021/05/28 04:26:53;;;;;;;4.65;3.10;;;;;;;15.27;81.00;93188.16;5029872;28;20461;-45
2021/05/28 04:29:20;;;;;;;4.07;3.20;;;;;;;15.35;80.82;93193.59;5029730;28;20526;-44
2021/05/28 04:31:46;;;;;;;6.05;3.53;;;;;;;15.35;80.70;93190.81;5029623;28;20033;-46
2021/05/28 04:34:11;;;;;;;4.65;3.05;;;;;;;15.42;80.29;93192.72;5029481;28;20056;-44
2021/05/28 04:36:37;;;;;;;6.35;3.50;;;;;;;15.36;79.74;93197.81;5029558;28;20117;-42
2021/05/28 04:39:03;;;;;;;3.28;2.60;;;;;;;15.33;79.92;93194.19;5045567;28;20021;-44
2021/05/28 04:41:29;;;;;;;4.35;2.88;;;;;;;15.32;80.31;93189.94;5053025;28;20051;-45
2021/05/28 04:43:54;;;;;;;6.63;3.72;;;;;;;14.98;80.53;93163.16;5053069;28;20017;-41
2021/05/28 04:46:20;;;;;;;3.75;3.35;;;;;;;15.08;81.48;93188.91;5052966;28;20036;-42
2021/05/28 04:48:45;;;;;;;4.68;3.80;;;;;;;15.08;81.58;93190.94;5052856;28;20032;-42
2021/05/28 04:51:11;;;;;;;4.25;3.47;;;;;;;15.09;81.59;93190.34;5053110;28;20021;-42
2021/05/28 04:53:36;;;;;;;5.18;3.10;;;;;;;15.14;82.15;93186.56;5052831;28;20107;-41
2021/05/28 04:56:01;;;;;;;5.80;3.70;;;;;;;15.19;81.68;93179.25;5053096;28;20021;-41
2021/05/28 04:58:27;;;;;;;4.30;2.55;;;;;;;15.15;82.30;93176.19;5052785;28;20040;-42
2021/05/28 05:00:52;;;;;;;3.15;2.85;;;;;;;15.11;82.72;93170.31;5052651;28;20021;-42
2021/05/28 05:03:18;;;;;;;6.20;3.90;;;;;;;15.18;82.96;93175.72;5052895;28;20024;-43
2021/05/28 05:05:43;;;;;;;4.65;4.18;;;;;;;15.27;82.21;93177.03;5052855;28;20402;-42
2021/05/28 05:08:09;;;;;;;4.50;3.13;;;;;;;15.35;81.40;93174.13;5039126;28;20479;-43
2021/05/28 05:10:34;;;;;;;5.15;3.67;;;;;;;15.38;81.76;93168.09;5032229;28;20017;-45
2021/05/28 05:13:00;;;;;;;3.67;3.00;;;;;;;15.40;82.04;93173.81;5032824;28;20041;-44
2021/05/28 05:15:25;;;;;;;4.82;3.70;;;;;;;15.55;81.51;93192.31;5032763;28;20454;-42
2021/05/28 05:17:51;;;;;;;4.32;3.72;;;;;;;15.56;81.45;93196.53;5032483;28;20120;-40
2021/05/28 05:20:16;;;;;;;19.90;6.00;;;;;;;15.53;81.82;93189.34;5033082;28;20026;-44
2021/05/28 05:22:42;;;;;;;7.63;4.90;;;;;;;15.62;81.19;93188.59;5032351;28;20040;-40
2021/05/28 05:25:08;;;;;;;5.68;4.13;;;;;;;15.64;80.65;93189.50;5032584;28;20029;-42
2021/05/28 05:27:33;;;;;;;6.70;4.53;;;;;;;15.76;80.41;93186.84;5032508;28;20030;-42
2021/05/28 05:30:00;;;;;;;5.05;3.92;;;;;;;15.77;80.37;93194.59;5032122;28;20408;-41
2021/05/28 05:32:26;;;;;;;4.13;3.28;;;;;;;15.74;80.57;93192.97;5032481;28;20399;-40
2021/05/28 05:34:54;;;;;;;4.32;3.05;;;;;;;15.62;81.21;93181.00;5044124;28;20549;-42
2021/05/28 05:37:19;;;;;;;8.27;3.60;;;;;;;15.92;80.26;93185.91;5052216;28;20051;-41
2021/05/28 05:39:45;;;;;;;5.75;4.00;;;;;;;16.07;79.72;93190.41;5051987;28;20478;-43
2021/05/28 05:42:10;;;;;;;4.13;3.17;;;;;;;16.25;79.29;93196.50;5051913;28;20024;-42
2021/05/28 05:44:35;;;;;;;6.72;4.47;;;;;;;16.28;79.39;93198.84;5051923;28;20017;-43
2021/05/28 05:47:01;;;;;;;4.35;2.88;;;;;;;16.37;78.68;93200.84;5051878;28;20100;-44
2021/05/28 05:49:27;;;;;;;4.15;3.15;;;;;;;16.44;78.41;93188.06;5051666;28;20029;-42
2021/05/28 05:51:52;;;;;;;4.35;3.22;;;;;;;16.59;76.53;93191.25;5050895;28;20025;-42
2021/05/28 05:54:18;;;;;;;9.27;4.28;;;;;;;16.78;76.81;93189.69;5052017;28;20032;-41
2021/05/28 05:56:45;;;;;;;4.90;3.35;;;;;;;17.07;76.06;93196.53;5051964;28;20095;-41
2021/05/28 05:59:10;;;;;;;4.30;3.78;;;;;;;17.29;76.20;93198.00;5051493;28;20063;-41
2021/05/28 06:01:36;;;;;;;4.47;3.83;;;;;;;17.43;74.80;93189.84;5050724;28;20060;-45
2021/05/28 06:04:01;;;;;;;13.07;3.15;;;;;;;17.51;73.75;93195.22;5051524;28;20032;-43
2021/05/28 06:06:27;;;;;;;7.13;3.80;;;;;;;17.65;72.66;93199.63;5051788;28;20559;-45
2021/05/28 06:08:53;;;;;;;5.40;3.50;;;;;;;17.46;72.17;93199.78;5031800;28;20532;-42
2021/05/28 06:11:18;;;;;;;4.28;3.83;;;;;;;17.38;73.57;93199.25;5031417;28;20525;-43
2021/05/28 06:13:44;;;;;;;5.90;4.25;;;;;;;17.33;74.41;93205.91;5031702;28;20065;-45
2021/05/28 06:16:09;;;;;;;7.20;3.85;;;;;;;17.28;72.56;93212.56;5031681;28;20048;-44
2021/05/28 06:18:35;;;;;;;6.85;4.68;;;;;;;16.87;74.16;93208.44;5031395;28;20114;-43
2021/05/28 06:21:01;;;;;;;7.55;5.20;;;;;;;16.78;75.25;93206.44;5031597;28;20480;-45
2021/05/28 06:23:26;;;;;;;8.73;5.90;;;;;;;16.73;75.93;93218.63;5031440;28;20522;-43
2021/05/28 06:25:53;;;;;;;13.10;6.18;;;;;;;16.78;76.96;93217.56;5031231;28;20037;-44
2021/05/28 06:28:18;;;;;;;9.50;6.43;;;;;;;16.86;75.65;93212.53;5031418;28;20029;-45
2021/05/28 06:30:44;;;;;;;9.15;6.75;;;;;;;16.98;75.73;93216.84;5039941;28;20083;-44
2021/05/28 06:33:11;;;;;;;8.63;5.53;;;;;;;17.11;75.01;93219.13;5051232;28;20029;-42
2021/05/28 06:35:37;;;;;;;8.43;6.07;;;;;;;17.12;74.72;93214.28;5051238;28;20025;-45
2021/05/28 06:38:03;;;;;;;8.85;6.85;;;;;;;17.11;73.63;93212.81;5051159;28;20017;-46
2021/05/28 06:40:29;;;;;;;8.25;6.32;;;;;;;17.14;73.59;93209.56;5051218;28;20098;-41
2021/05/28 06:42:54;;;;;;;12.40;6.78;;;;;;;16.98;73.67;93191.06;5051070;28;20031;-41
2021/05/28 06:45:20;;;;;;;7.90;6.10;;;;;;;17.06;73.05;93211.09;5032872;28;20513;-44
2021/05/28 06:47:46;;;;;;;8.63;5.43;;;;;;;17.13;74.28;93202.53;5050896;28;20063;-43
2021/05/28 06:50:13;;;;;;;8.15;5.60;;;;;;;17.32;73.10;93204.47;5050268;28;20067;-44
2021/05/28 06:52:38;;;;;;;6.97;5.57;;;;;;;17.41;72.93;93195.28;5050963;28;20033;-44
2021/05/28 06:55:05;;;;;;;9.43;5.82;;;;;;;17.50;73.10;93197.28;5051025;28;20025;-44
2021/05/28 06:57:30;;;;;;;8.50;5.60;;;;;;;17.68;72.68;93204.03;5050583;28;20025;-44
2021/05/28 06:59:56;;;;;;;10.82;7.10;;;;;;;17.99;72.28;93192.72;5050792;28;20071;-42
2021/05/28 07:02:22;;;;;;;9.15;5.28;;;;;;;18.46;69.09;93199.13;5050603;28;20029;-44
2021/05/28 07:04:48;;;;;;;8.07;5.25;;;;;;;18.65;69.45;93196.81;5050484;28;20479;-43
2021/05/28 07:07:13;;;;;;;10.18;6.47;;;;;;;18.57;67.45;93193.53;5047321;28;20035;-41
2021/05/28 07:09:38;;;;;;;9.23;5.45;;;;;;;18.57;67.74;93195.59;5050600;28;20029;-43
2021/05/28 07:12:04;;;;;;;8.63;5.93;;;;;;;18.49;67.50;93192.31;5050267;28;20434;-43
2021/05/28 07:14:29;;;;;;;8.77;6.05;;;;;;;18.40;67.90;93190.34;5050723;28;20037;-46
2021/05/28 07:16:55;;;;;;;10.13;6.43;;;;;;;18.51;69.13;93190.38;5050483;28;20028;-41
2021/05/28 07:19:20;;;;;;;11.52;6.65;;;;;;;18.51;68.57;93189.66;5049929;28;20049;-41
2021/05/28 07:21:46;;;;;;;11.23;6.72;;;;;;;18.65;69.04;93187.69;5050189;28;20494;-43
2021/05/28 07:24:11;;;;;;;13.35;7.13;;;;;;;19.08;67.85;93193.75;5050104;28;20036;-41
2021/05/28 07:26:37;;;;;;;8.80;5.57;;;;;;;19.46;66.69;93187.59;5044360;28;20025;-43
2021/05/28 07:29:03;;;;;;;8.85;5.93;;;;;;;19.44;65.14;93202.22;5030330;28;20113;-42
2021/05/28 07:31:28;;;;;;;10.02;6.30;;;;;;;19.15;65.28;93187.16;5030450;28;20572;-43
2021/05/28 07:33:54;;;;;;;7.63;5.53;;;;;;;18.88;67.08;93194.00;5030408;28;20116;-41
2021/05/28 07:36:21;;;;;;;10.43;6.18;;;;;;;18.77;66.46;93194.03;5030151;28;20040;-43
2021/05/28 07:38:47;;;;;;;11.98;6.30;;;;;;;18.62;67.57;93198.06;5030127;28;20023;-42
2021/05/28 07:41:12;;;;;;;9.77;6.15;;;;;;;18.32;68.85;93187.78;5029608;28;20030;-41
2021/05/28 07:43:38;;;;;;;10.90;5.95;;;;;;;18.19;69.63;93188.38;5030325;28;20028;-41
2021/05/28 07:46:04;;;;;;;10.23;6.70;;;;;;;18.07;70.15;93188.38;5029959;28;20052;-43
2021/05/28 07:48:29;;;;;;;11.73;6.88;;;;;;;17.95;71.30;93189.66;5030181;28;20041;-41
2021/05/28 07:51:01;;;;;;;11.65;6.50;;;;;;;17.82;72.05;93188.16;5030221;28;20083;-41
2021/05/28 07:53:27;;;;;;;7.88;5.75;;;;;;;17.60;72.53;93195.16;5029900;28;20068;-41
2021/05/28 07:56:05;;;;;;;9.32;6.78;;;;;;;17.60;73.13;93189.56;5030197;28;20087;-41
2021/05/28 07:58:31;;;;;;;8.05;5.05;;;;;;;17.61;72.99;93184.69;5029971;28;20024;-44
2021/05/28 08:00:56;;;;;;;9.15;6.55;;;;;;;17.68;72.84;93180.97;5030165;28;20022;-43
2021/05/28 08:03:22;;;;;;;8.55;6.30;;;;;;;17.72;73.50;93187.53;5030076;28;20037;-45
2021/05/28 08:05:50;;;;;;;8.90;5.03;;;;;;;17.61;73.50;93191.00;5030133;28;20457;-44
2021/05/28 08:08:17;;;;;;;12.27;6.00;;;;;;;17.56;72.48;93192.09;5029099;28;20128;-41
2021/05/28 08:10:42;;;;;;;10.15;6.40;;;;;;;17.57;72.40;93187.22;5030084;28;20026;-42
2021/05/28 08:13:08;;;;;;;7.15;5.90;;;;;;;17.57;72.58;93193.53;5029722;28;20518;-43
2021/05/28 08:15:33;;;;;;;7.82;5.80;;;;;;;17.62;72.22;93180.56;5033133;28;20026;-41
2021/05/28 08:17:59;;;;;;;5.13;4.15;;;;;;;17.49;71.52;93186.69;5033642;28;20045;-43
2021/05/28 08:20:25;;;;;;;6.38;3.75;;;;;;;17.36;72.59;93190.75;5033844;28;20151;-45
2021/05/28 08:22:52;;;;;;;6.93;4.47;;;;;;;17.31;72.32;93183.44;5039503;28;20052;-41
2021/05/28 08:25:18;;;;;;;6.43;4.18;;;;;;;17.18;73.92;93179.16;5053659;28;20104;-42
2021/05/28 08:27:44;;;;;;;7.90;5.30;;;;;;;16.86;75.67;93184.66;5053289;28;20029;-45
2021/05/28 08:30:10;;;;;;;4.57;3.55;;;;;;;16.89;75.23;93180.69;5053163;28;20037;-40
2021/05/28 08:32:36;;;;;;;7.53;3.75;;;;;;;16.86;75.83;93184.66;5053495;28;20021;-43
2021/05/28 08:35:02;;;;;;;6.20;4.30;;;;;;;16.79;75.90;93174.41;5053203;28;20542;-40
2021/05/28 08:37:27;;;;;;;8.77;3.63;;;;;;;16.86;75.82;93179.06;5053446;28;20108;-42
2021/05/28 08:39:53;;;;;;;6.68;4.38;;;;;;;16.95;74.43;93197.81;5053208;28;20021;-41
2021/05/28 08:42:20;;;;;;;6.15;4.35;;;;;;;16.99;74.95;93204.38;5053072;28;20033;-42
2021/05/28 08:44:48;;;;;;;7.32;4.63;;;;;;;16.96;74.28;93205.56;5053344;28;20049;-40
2021/05/28 08:47:15;;;;;;;5.07;3.10;;;;;;;16.94;73.32;93210.28;5053271;28;20028;-43
2021/05/28 17:38:01;;;;;;;7.63;5.45;;;;;;;13.23;78.57;93357.66;5027422;28;20057;-63
2021/05/28 17:40:26;;;;;;;8.13;5.93;;;;;;;13.14;78.99;93361.09;5043273;28;20536;-63
2021/05/28 17:42:53;;;;;;;10.30;6.22;;;;;;;13.21;78.68;93362.34;5060343;28;20111;-63
2021/05/28 17:45:19;;;;;;;17.45;7.57;;;;;;;13.16;78.56;93358.50;5049675;28;20033;-63
2021/05/28 17:47:45;;;;;;;19.95;6.00;;;;;;;13.16;78.22;93366.81;5048545;28;20029;-63
2021/05/28 17:50:14;;;;;;;12.02;5.78;;;;;;;13.12;78.94;93354.66;5031555;28;20108;-64
2021/05/28 17:52:40;;;;;;;8.95;6.00;;;;;;;13.09;78.97;93361.31;5049189;28;20257;-64
2021/05/28 17:55:07;;;;;;;9.00;6.47;;;;;;;12.98;78.99;93345.84;5031810;28;20052;-63
2021/05/28 17:57:32;;;;;;;9.07;6.72;;;;;;;13.12;78.23;93368.50;5031504;28;20494;-64
2021/05/28 17:59:58;;;;;;;9.75;5.93;;;;;;;13.21;78.25;93370.66;5048991;28;20025;-65
2021/05/28 18:02:24;;;;;;;8.90;6.57;;;;;;;13.22;77.90;93375.63;5048151;28;20090;-63
2021/05/28 18:04:52;;;;;;;9.50;5.70;;;;;;;13.19;78.53;93368.44;5047347;28;20023;-64
2021/05/28 18:07:18;;;;;;;9.98;6.53;;;;;;;13.21;78.06;93371.38;5047855;28;20071;-63
2021/05/28 18:09:46;;;;;;;8.57;5.75;;;;;;;13.25;77.53;93362.66;5048807;28;20078;-64
2021/05/28 18:12:13;;;;;;;8.57;5.93;;;;;;;13.22;77.75;93367.31;5048823;28;20029;-62
2021/05/28 18:14:39;;;;;;;8.48;6.60;;;;;;;13.20;77.95;93367.13;5049230;28;20471;-63
2021/05/28 18:17:05;;;;;;;10.55;6.57;;;;;;;13.16;77.37;93368.84;5048628;28;20023;-64
2021/05/28 18:19:32;;;;;;;10.05;6.78;;;;;;;13.07;78.24;93361.88;5046856;28;20013;-63
2021/05/28 18:21:58;;;;;;;19.48;7.35;;;;;;;13.03;78.87;93363.56;5048780;28;20498;-64
2021/05/28 18:24:24;;;;;;;11.63;7.32;;;;;;;13.06;78.61;93365.94;5056231;28;20048;-64
2021/05/28 18:26:50;;;;;;;8.90;6.45;;;;;;;12.92;78.26;93353.66;5068803;28;20034;-64
2021/05/28 18:29:16;;;;;;;8.45;6.93;;;;;;;13.11;77.92;93384.41;5068772;28;20409;-64
2021/05/28 18:31:42;;;;;;;13.27;9.10;;;;;;;13.17;78.19;93401.53;5059541;28;20025;-64
2021/05/28 18:34:08;;;;;;;11.40;8.52;;;;;;;13.02;77.08;93393.31;5055254;28;20469;-64
2021/05/28 18:36:35;;;;;;;9.77;6.93;;;;;;;13.04;77.84;93395.53;5050635;28;20095;-64
2021/05/28 18:39:02;;;;;;;10.52;7.03;;;;;;;13.07;77.59;93397.91;5061773;28;20053;-64
2021/05/28 18:41:28;;;;;;;10.20;6.85;;;;;;;13.00;77.67;93407.00;5060867;28;20417;-64
2021/05/28 18:43:54;;;;;;;9.82;6.78;;;;;;;13.05;77.74;93411.63;5061536;28;20539;-64
2021/05/28 18:46:20;;;;;;;9.48;6.80;;;;;;;13.08;77.21;93412.53;5055869;28;20028;-64
2021/05/28 18:48:46;;;;;;;8.15;5.93;;;;;;;12.94;77.14;93400.94;5055217;28;20527;-64
2021/05/28 18:51:12;;;;;;;7.05;5.63;;;;;;;13.00;77.77;93420.84;5054377;28;20032;-64
2021/05/28 18:53:39;;;;;;;15.13;9.65;;;;;;;12.94;77.60;93421.09;5055486;28;20024;-64
2021/05/28 18:56:09;;;;;;;11.73;6.65;;;;;;;12.95;77.58;93417.00;5053616;28;20407;-64
2021/05/28 18:58:37;;;;;;;9.43;7.07;;;;;;;12.94;77.65;93436.97;5055525;28;20194;-64
2021/05/28 19:01:04;;;;;;;9.30;7.95;;;;;;;12.97;77.27;93430.31;5055894;28;20107;-64
2021/05/28 19:03:30;;;;;;;11.50;6.85;;;;;;;12.97;77.08;93430.31;5051898;28;20517;-64
2021/05/28 19:06:00;;;;;;;9.18;7.65;;;;;;;12.97;77.69;93430.31;5047844;28;20132;-64
2021/05/28 19:08:28;;;;;;;12.55;7.72;;;;;;;12.94;77.20;93432.16;5053488;28;20085;-64
2021/05/28 19:10:55;;;;;;;7.18;6.07;;;;;;;12.92;77.57;93432.00;5048047;28;20032;-64
2021/05/28 19:13:21;;;;;;;8.30;5.75;;;;;;;12.79;77.58;93428.75;5064673;28;20388;-64
2021/05/28 19:15:56;;;;;;;9.73;7.32;;;;;;;12.92;77.44;93436.81;5056870;28;20020;-64
2021/05/28 19:18:24;;;;;;;9.25;5.68;;;;;;;12.91;77.27;93438.09;5055804;28;20414;-64
2021/05/28 19:20:51;;;;;;;11.57;6.82;;;;;;;12.86;77.48;93439.06;5058444;28;20051;-63
2021/05/28 19:23:18;;;;;;;9.38;6.10;;;;;;;12.82;77.87;93438.72;5056604;28;20044;-63
2021/05/28 19:25:46;;;;;;;8.10;5.18;;;;;;;12.84;77.72;93444.44;5049946;28;20037;-64
2021/05/28 19:28:14;;;;;;;7.72;6.00;;;;;;;12.88;77.62;93439.22;5068897;28;20020;-64
2021/05/28 19:30:42;;;;;;;10.10;6.57;;;;;;;12.80;77.96;93441.28;5052282;28;20039;-63
2021/05/28 19:33:07;;;;;;;8.30;6.32;;;;;;;12.76;78.51;93438.19;5052187;28;20020;-63
2021/05/28 19:35:34;;;;;;;9.07;6.57;;;;;;;12.76;79.40;93449.25;5069846;28;20027;-65
2021/05/28 19:37:59;;;;;;;9.73;7.10;;;;;;;12.77;78.66;93454.25;5063104;28;20502;-65
2021/05/28 19:40:26;;;;;;;12.52;7.35;;;;;;;12.70;77.56;93443.22;5047787;28;20135;-63
2021/05/28 19:42:53;;;;;;;10.55;8.65;;;;;;;12.71;77.82;93459.25;5052476;28;20031;-64
2021/05/28 19:45:19;;;;;;;11.43;6.15;;;;;;;12.65;77.84;93460.78;5055864;28;20024;-63
2021/05/28 19:47:45;;;;;;;8.57;6.03;;;;;;;12.69;77.86;93458.38;5058348;28;20518;-63
2021/05/28 19:50:16;;;;;;;9.13;6.70;;;;;;;12.66;77.30;93454.69;5059596;28;20406;-63
2021/05/28 19:52:44;;;;;;;9.90;7.22;;;;;;;12.58;78.08;93453.25;5058366;28;20021;-64
2021/05/28 19:57:56;;;;;;;8.43;6.40;;;;;;;12.56;77.78;93442.00;5055509;28;20167;-64
2021/05/28 20:00:23;;;;;;;11.55;6.22;;;;;;;12.46;77.85;93443.88;5058418;28;20021;-63
2021/05/28 20:02:49;;;;;;;7.10;5.22;;;;;;;12.52;77.89;93445.16;5056997;28;20100;-63
2021/05/28 20:05:16;;;;;;;7.47;5.72;;;;;;;12.48;78.15;93447.56;5054424;28;20037;-64
2021/05/28 20:08:02;;;;;;;7.20;5.30;;;;;;;12.50;78.10;93442.22;5048294;28;20395;-63
2021/05/28 20:10:36;;;;;;;6.95;5.07;;;;;;;12.56;77.90;93444.78;5050044;28;20043;-63
2021/05/28 20:15:46;;;;;;;8.88;6.25;;;;;;;12.60;77.97;93437.56;5053161;28;20710;-63
2021/05/28 20:18:11;;;;;;;10.18;6.97;;;;;;;12.61;78.06;93439.00;5053255;28;20032;-63
2021/05/28 20:20:37;;;;;;;8.75;5.20;;;;;;;12.72;76.70;93443.38;5053810;28;20032;-63
2021/05/28 20:23:02;;;;;;;9.18;6.70;;;;;;;12.58;78.33;93439.41;5053651;28;20114;-65